Time;durP1;ratioP1;P1;durP2;ratioP2;P2;SDS_P1;SDS_P2;PMS_P1;PMS_P2;Temp;Humidity;BMP_temperature;BMP_pressure;BME280_temperature;BME280_humidity;BME280_pressure;Samples;Min_cycle;Max_cycle;Signal;HPM_P1;HPM_P2
2023/05/05 00:01:06;;;;;;;4.07;2.23;;;10.40;99.90;;;;;;4977761;28;20470;-62
2023/05/05 00:03:35;;;;;;;6.17;2.43;;;10.40;99.90;;;;;;4984112;28;20850;-61
2023/05/05 00:06:04;;;;;;;4.60;2.00;;;10.30;99.90;;;;;;4981952;28;20484;-62
2023/05/05 00:08:32;;;;;;;2.83;2.63;;;10.40;99.90;;;;;;4978776;28;20480;-62
2023/05/05 00:11:00;;;;;;;3.87;2.50;;;10.30;99.90;;;;;;4984672;28;20470;-62
2023/05/05 00:13:27;;;;;;;2.70;2.50;;;10.30;99.90;;;;;;4986548;28;20512;-62
2023/05/05 00:15:57;;;;;;;3.03;2.37;;;10.30;99.90;;;;;;4988096;28;20492;-62
2023/05/05 00:18:27;;;;;;;3.80;2.70;;;10.30;99.90;;;;;;4984774;28;20977;-62
2023/05/05 00:20:55;;;;;;;4.63;2.70;;;10.20;99.90;;;;;;4985250;28;20478;-61
2023/05/05 00:23:23;;;;;;;4.33;2.77;;;10.20;99.90;;;;;;4982266;28;21026;-62
2023/05/05 00:25:50;;;;;;;3.20;2.37;;;10.20;99.90;;;;;;4977990;28;20500;-61
2023/05/05 00:28:18;;;;;;;4.43;2.37;;;10.20;99.90;;;;;;4982631;28;20465;-61
2023/05/05 00:30:46;;;;;;;6.23;2.60;;;10.20;99.90;;;;;;4981066;28;20470;-62
2023/05/05 00:33:14;;;;;;;4.37;2.53;;;10.10;99.90;;;;;;4982982;28;20971;-61
2023/05/05 00:35:44;;;;;;;3.67;2.47;;;10.10;99.90;;;;;;4981798;28;20580;-62
2023/05/05 00:38:12;;;;;;;4.03;2.40;;;10.00;99.90;;;;;;4974318;28;21016;-61
2023/05/05 00:40:40;;;;;;;3.17;2.37;;;10.00;99.90;;;;;;4983527;28;20465;-62
2023/05/05 00:43:08;;;;;;;3.77;3.10;;;10.00;99.90;;;;;;4978114;28;20632;-61
2023/05/05 00:45:37;;;;;;;5.10;2.70;;;10.00;99.90;;;;;;4978958;28;20572;-62
2023/05/05 00:48:06;;;;;;;2.80;2.53;;;9.90;99.90;;;;;;4982891;28;20473;-61
2023/05/05 00:50:35;;;;;;;3.90;2.60;;;9.90;99.90;;;;;;4982236;28;21062;-62
2023/05/05 00:53:06;;;;;;;5.20;2.67;;;9.90;99.90;;;;;;4981392;28;20475;-62
2023/05/05 00:55:35;;;;;;;2.97;2.17;;;9.90;99.90;;;;;;4979243;28;20518;-62
2023/05/05 00:58:03;;;;;;;6.00;2.53;;;9.90;99.90;;;;;;4989963;28;20469;-62
2023/05/05 01:00:31;;;;;;;4.00;2.70;;;9.90;99.90;;;;;;5004024;28;20462;-62
2023/05/05 01:02:59;;;;;;;4.30;2.67;;;9.90;99.90;;;;;;4991656;28;20458;-62
2023/05/05 01:05:34;;;;;;;2.70;2.30;;;9.80;99.90;;;;;;4981419;28;20976;-62
2023/05/05 01:08:19;;;;;;;4.90;2.40;;;9.80;99.90;;;;;;4980618;28;20484;-62
2023/05/05 01:10:54;;;;;;;4.70;2.60;;;9.70;99.90;;;;;;4980705;28;21010;-62
2023/05/05 01:13:32;;;;;;;3.53;2.27;;;9.80;99.90;;;;;;4983549;28;20483;-62
2023/05/05 01:16:09;;;;;;;3.83;2.27;;;9.70;99.90;;;;;;4980252;28;20491;-62
2023/05/05 01:18:43;;;;;;;3.80;2.63;;;9.70;99.90;;;;;;4979762;28;20473;-62
2023/05/05 01:21:22;;;;;;;4.10;2.80;;;9.70;99.90;;;;;;4981390;28;20807;-62
2023/05/05 01:24:28;;;;;;;3.00;2.50;;;9.70;99.90;;;;;;4979364;28;20484;-62
2023/05/05 01:27:15;;;;;;;4.10;2.53;;;9.70;99.90;;;;;;4978967;28;20489;-62
2023/05/05 01:30:00;;;;;;;4.70;3.07;;;9.70;99.90;;;;;;4979724;28;20987;-62
2023/05/05 01:32:38;;;;;;;3.67;2.90;;;9.70;99.90;;;;;;4981269;28;20859;-62
2023/05/05 01:35:14;;;;;;;5.30;3.00;;;9.70;99.90;;;;;;4978948;28;20506;-62
2023/05/05 01:37:49;;;;;;;2.83;2.63;;;9.70;99.90;;;;;;4978436;28;20469;-62
2023/05/05 01:40:25;;;;;;;4.00;2.80;;;9.60;99.90;;;;;;4975613;28;20472;-61
2023/05/05 01:42:55;;;;;;;3.57;2.60;;;9.60;99.90;;;;;;4973152;28;20549;-61
2023/05/05 01:45:26;;;;;;;3.30;2.37;;;9.60;99.90;;;;;;4977035;28;21065;-62
2023/05/05 01:47:57;;;;;;;5.03;2.87;;;9.50;99.90;;;;;;4974962;28;20473;-61
2023/05/05 01:50:28;;;;;;;6.73;2.67;;;9.50;99.90;;;;;;4978733;28;20509;-61
2023/05/05 01:52:57;;;;;;;3.90;2.70;;;9.50;99.90;;;;;;4977241;28;20473;-61
2023/05/05 01:55:27;;;;;;;7.80;3.60;;;9.40;99.90;;;;;;4977546;28;20528;-61
2023/05/05 01:57:59;;;;;;;4.73;3.23;;;9.50;99.90;;;;;;4977352;28;20512;-61
2023/05/05 02:00:28;;;;;;;6.70;2.60;;;9.50;99.90;;;;;;4978255;28;20481;-61
2023/05/05 02:02:59;;;;;;;4.17;2.70;;;9.50;99.90;;;;;;4976372;28;20470;-61
2023/05/05 02:05:27;;;;;;;2.93;2.50;;;9.50;99.90;;;;;;4977505;28;20500;-61
2023/05/05 02:07:58;;;;;;;3.47;3.17;;;9.50;99.90;;;;;;4974701;28;20481;-61
2023/05/05 02:10:28;;;;;;;4.97;2.63;;;9.40;99.90;;;;;;4977946;28;20480;-61
2023/05/05 02:12:58;;;;;;;4.50;2.80;;;9.40;99.90;;;;;;4981651;28;20544;-61
2023/05/05 02:15:28;;;;;;;3.33;2.60;;;9.40;99.90;;;;;;4979660;28;20575;-61
2023/05/05 02:17:59;;;;;;;3.80;2.63;;;9.30;99.90;;;;;;4980958;28;20974;-61
2023/05/05 02:20:30;;;;;;;3.23;2.90;;;9.30;99.90;;;;;;4979531;28;20476;-64
2023/05/05 02:22:59;;;;;;;5.27;3.13;;;9.30;99.90;;;;;;4979500;28;20818;-61
2023/05/05 02:25:35;;;;;;;4.50;2.90;;;9.30;99.90;;;;;;4978287;28;21107;-62
2023/05/05 02:28:05;;;;;;;3.97;2.87;;;9.30;99.90;;;;;;4979717;28;20487;-61
2023/05/05 02:30:36;;;;;;;2.87;2.53;;;9.40;99.90;;;;;;4980091;28;21539;-61
2023/05/05 02:33:08;;;;;;;6.80;3.03;;;9.30;99.90;;;;;;4981779;28;21009;-61
2023/05/05 02:35:38;;;;;;;3.40;2.70;;;9.40;99.90;;;;;;4972493;28;20497;-61
2023/05/05 02:38:16;;;;;;;4.37;3.17;;;9.30;99.90;;;;;;4978806;28;20474;-61
2023/05/05 02:40:47;;;;;;;4.67;3.47;;;9.30;99.90;;;;;;4975513;28;20472;-61
2023/05/05 02:43:18;;;;;;;4.20;2.53;;;9.30;99.90;;;;;;4973078;28;20631;-61
2023/05/05 02:45:46;;;;;;;3.70;3.00;;;9.20;99.90;;;;;;4980008;28;21074;-61
2023/05/05 02:48:15;;;;;;;4.10;2.57;;;9.20;99.90;;;;;;4981169;28;20500;-61
2023/05/05 02:50:43;;;;;;;3.87;3.07;;;9.20;99.90;;;;;;4984682;28;20473;-61
2023/05/05 02:53:11;;;;;;;6.20;2.60;;;9.20;99.90;;;;;;4983734;28;20489;-61
2023/05/05 02:55:42;;;;;;;5.07;3.00;;;9.20;99.90;;;;;;4983834;28;20991;-61
2023/05/05 02:58:19;;;;;;;4.20;2.97;;;9.20;99.90;;;;;;4981771;28;20461;-61
2023/05/05 03:00:53;;;;;;;3.70;3.00;;;9.10;99.90;;;;;;4981013;28;20469;-61
2023/05/05 03:03:32;;;;;;;4.20;3.10;;;9.10;99.90;;;;;;4980949;28;20464;-61
2023/05/05 03:06:07;;;;;;;3.93;3.10;;;9.10;99.90;;;;;;4996066;28;21026;-61
2023/05/05 03:08:42;;;;;;;3.63;3.00;;;9.10;99.90;;;;;;4999214;28;20516;-61
2023/05/05 03:11:18;;;;;;;3.40;3.10;;;9.10;99.90;;;;;;4982581;28;20507;-61
2023/05/05 03:13:51;;;;;;;5.63;3.10;;;9.00;99.90;;;;;;4982350;28;20480;-61
2023/05/05 03:16:23;;;;;;;4.30;2.80;;;9.00;99.90;;;;;;4980152;28;20496;-62
2023/05/05 03:18:53;;;;;;;5.17;3.17;;;8.90;99.90;;;;;;4981090;28;20473;-61
2023/05/05 03:21:21;;;;;;;3.20;2.90;;;8.90;99.90;;;;;;4981464;28;21037;-61
2023/05/05 03:23:49;;;;;;;3.97;2.93;;;8.90;99.90;;;;;;4978999;28;20487;-61
2023/05/05 03:26:18;;;;;;;5.53;3.30;;;8.90;99.90;;;;;;4979817;28;20488;-61
2023/05/05 03:28:46;;;;;;;5.30;3.40;;;8.90;99.90;;;;;;4992048;28;20759;-61
2023/05/05 03:31:14;;;;;;;4.57;3.30;;;8.90;99.90;;;;;;4978753;28;20847;-62
2023/05/05 03:33:42;;;;;;;3.80;3.13;;;8.80;99.90;;;;;;4980313;28;20506;-61
2023/05/05 03:36:12;;;;;;;5.30;2.83;;;8.80;99.90;;;;;;4981868;28;20493;-62
2023/05/05 03:38:40;;;;;;;7.17;3.50;;;8.80;99.90;;;;;;4983849;28;20493;-61
2023/05/05 03:41:07;;;;;;;6.23;3.23;;;8.80;99.90;;;;;;4983366;28;20466;-61
2023/05/05 03:43:36;;;;;;;4.43;3.10;;;8.80;99.90;;;;;;4981071;28;20500;-62
2023/05/05 03:46:04;;;;;;;5.83;3.80;;;8.80;99.90;;;;;;4979721;28;20501;-61
2023/05/05 03:48:32;;;;;;;3.70;3.40;;;8.80;99.90;;;;;;4983562;28;20559;-61
2023/05/05 03:51:00;;;;;;;4.87;3.87;;;8.80;99.90;;;;;;4979043;28;20476;-61
2023/05/05 03:53:30;;;;;;;4.73;3.70;;;8.80;99.90;;;;;;4983734;28;20902;-61
2023/05/05 03:56:01;;;;;;;8.17;4.07;;;8.80;99.90;;;;;;4981629;28;20477;-61
2023/05/05 03:58:29;;;;;;;4.60;3.50;;;8.80;99.90;;;;;;4979325;28;20472;-61
2023/05/05 04:00:56;;;;;;;7.03;3.83;;;8.80;99.90;;;;;;4981247;28;20478;-61
2023/05/05 04:03:24;;;;;;;4.03;3.63;;;8.80;99.90;;;;;;4977285;28;20477;-61
2023/05/05 04:05:53;;;;;;;4.03;3.57;;;8.80;99.90;;;;;;4976953;28;20569;-62
2023/05/05 04:08:21;;;;;;;4.63;4.00;;;8.80;99.90;;;;;;4981190;28;20473;-61
2023/05/05 04:10:50;;;;;;;6.40;4.60;;;8.80;99.90;;;;;;4976523;28;20507;-61
2023/05/05 04:13:18;;;;;;;5.43;4.33;;;8.80;99.90;;;;;;4973112;28;20480;-61
2023/05/05 04:15:47;;;;;;;6.77;4.17;;;8.90;99.90;;;;;;4980939;28;20497;-61
2023/05/05 04:18:15;;;;;;;5.10;4.23;;;8.80;99.90;;;;;;4982222;28;20828;-61
2023/05/05 04:20:43;;;;;;;6.17;3.67;;;8.80;99.90;;;;;;4979846;28;20484;-61
2023/05/05 04:23:11;;;;;;;5.40;4.23;;;8.80;99.90;;;;;;4981849;28;20468;-63
2023/05/05 04:25:39;;;;;;;9.77;4.80;;;8.80;99.90;;;;;;4977219;28;20486;-63
2023/05/05 04:28:08;;;;;;;6.60;4.77;;;8.80;99.90;;;;;;4979598;28;20501;-61
2023/05/05 04:30:36;;;;;;;6.20;5.00;;;8.80;99.90;;;;;;4978173;28;20552;-61
2023/05/05 04:33:04;;;;;;;5.17;4.27;;;8.80;99.90;;;;;;4982132;28;20998;-61
2023/05/05 04:35:32;;;;;;;6.53;4.20;;;8.80;99.90;;;;;;4981922;28;20490;-61
2023/05/05 04:38:00;;;;;;;8.70;5.03;;;8.80;99.90;;;;;;4978629;28;20524;-61
2023/05/05 04:40:28;;;;;;;7.13;4.97;;;8.80;99.90;;;;;;4980182;28;22063;-61
2023/05/05 04:42:56;;;;;;;9.23;5.00;;;8.80;99.90;;;;;;4978345;28;20499;-61
2023/05/05 04:45:26;;;;;;;7.47;5.30;;;8.80;99.90;;;;;;4969571;28;20502;-62
2023/05/05 04:47:55;;;;;;;8.47;4.77;;;8.90;99.90;;;;;;4980341;28;20493;-62
2023/05/05 04:50:24;;;;;;;5.87;4.80;;;8.90;99.90;;;;;;4975113;28;20466;-62
2023/05/05 04:52:51;;;;;;;8.90;5.40;;;8.90;99.90;;;;;;4979310;28;20478;-61
2023/05/05 04:55:20;;;;;;;7.07;5.03;;;8.90;99.90;;;;;;4975306;28;20485;-61
2023/05/05 04:57:48;;;;;;;8.13;5.23;;;9.00;99.90;;;;;;4981207;28;20478;-61
2023/05/05 05:00:16;;;;;;;6.20;5.30;;;8.90;99.90;;;;;;4980960;28;20488;-61
2023/05/05 05:02:46;;;;;;;6.40;5.33;;;9.00;99.90;;;;;;4979555;28;20480;-61
2023/05/05 05:05:14;;;;;;;9.80;5.60;;;9.00;99.90;;;;;;4973368;28;21061;-60
2023/05/05 05:07:42;;;;;;;6.70;5.60;;;9.00;99.90;;;;;;4971728;28;20497;-61
2023/05/05 05:10:10;;;;;;;8.73;5.67;;;9.00;99.90;;;;;;4983135;28;20506;-60
2023/05/05 05:12:38;;;;;;;13.17;7.10;;;9.10;99.90;;;;;;4999855;28;20484;-61
2023/05/05 05:15:08;;;;;;;8.50;5.63;;;9.10;99.90;;;;;;4973665;28;20508;-61
2023/05/05 05:17:35;;;;;;;6.40;5.73;;;9.10;99.90;;;;;;4970860;28;20469;-61
2023/05/05 05:20:06;;;;;;;7.23;5.10;;;9.10;99.90;;;;;;4980353;28;20496;-61
2023/05/05 05:22:37;;;;;;;7.57;5.10;;;9.20;99.90;;;;;;4978693;28;20478;-61
2023/05/05 05:25:05;;;;;;;10.27;5.73;;;9.20;99.90;;;;;;4975862;28;20469;-62
2023/05/05 05:27:33;;;;;;;7.70;5.50;;;9.30;99.90;;;;;;4958726;28;20518;-62
2023/05/05 05:30:01;;;;;;;8.07;5.20;;;9.30;99.90;;;;;;4971457;28;20526;-62
2023/05/05 05:32:29;;;;;;;5.70;5.13;;;9.30;99.90;;;;;;4983267;28;20975;-61
2023/05/05 05:34:57;;;;;;;5.87;4.73;;;9.30;99.90;;;;;;4979884;28;20980;-62
2023/05/05 05:37:30;;;;;;;6.60;5.40;;;9.30;99.90;;;;;;4976915;28;20480;-63
2023/05/05 05:39:58;;;;;;;5.80;4.93;;;9.30;99.90;;;;;;4971125;28;20884;-62
2023/05/05 05:42:26;;;;;;;7.73;5.70;;;9.30;99.90;;;;;;4955326;28;20481;-62
2023/05/05 05:44:54;;;;;;;8.30;4.83;;;9.40;99.90;;;;;;4957420;28;20508;-61
2023/05/05 05:47:22;;;;;;;6.97;5.30;;;9.40;99.90;;;;;;4949865;28;20550;-62
2023/05/05 05:49:50;;;;;;;7.77;5.87;;;9.40;99.90;;;;;;4956463;28;21677;-61
2023/05/05 05:52:18;;;;;;;7.63;5.00;;;9.40;99.90;;;;;;4968688;28;20486;-62
2023/05/05 05:54:47;;;;;;;7.20;4.93;;;9.50;99.90;;;;;;4963637;28;20485;-61
2023/05/05 05:57:15;;;;;;;8.00;5.73;;;9.50;99.90;;;;;;4959644;28;21023;-62
2023/05/05 05:59:43;;;;;;;6.13;5.20;;;9.60;99.90;;;;;;4965120;28;20473;-61
2023/05/05 06:02:11;;;;;;;8.70;5.57;;;9.60;99.90;;;;;;4959877;28;20477;-62
2023/05/05 06:04:39;;;;;;;8.53;5.60;;;9.70;99.90;;;;;;4963580;28;20953;-62
2023/05/05 06:07:08;;;;;;;8.83;5.97;;;9.80;99.90;;;;;;4970089;28;20824;-62
2023/05/05 06:09:36;;;;;;;6.63;5.60;;;9.90;99.90;;;;;;4969169;28;20477;-62
2023/05/05 06:12:05;;;;;;;6.10;5.50;;;10.00;99.90;;;;;;4968216;28;20477;-62
2023/05/05 06:14:33;;;;;;;7.80;5.60;;;10.00;99.90;;;;;;4956995;28;20477;-62
2023/05/05 06:17:01;;;;;;;6.60;5.37;;;10.10;99.90;;;;;;4963833;28;21913;-62
2023/05/05 06:19:29;;;;;;;7.70;5.50;;;10.10;99.90;;;;;;4959103;28;20473;-62
2023/05/05 06:21:57;;;;;;;7.43;5.60;;;10.20;99.90;;;;;;4975946;28;20789;-62
2023/05/05 06:24:25;;;;;;;6.80;5.43;;;10.30;99.90;;;;;;4965071;28;20864;-62
2023/05/05 06:26:53;;;;;;;7.53;6.00;;;10.40;99.90;;;;;;4966790;28;20501;-62
2023/05/05 06:29:23;;;;;;;8.87;5.37;;;10.40;99.90;;;;;;4972553;28;20493;-62
2023/05/05 06:31:51;;;;;;;10.10;5.57;;;10.40;99.90;;;;;;4974452;28;20827;-63
2023/05/05 06:34:19;;;;;;;6.70;5.30;;;10.50;99.90;;;;;;4976465;28;20478;-62
2023/05/05 06:36:47;;;;;;;5.60;5.03;;;10.50;99.90;;;;;;4976196;28;20508;-62
2023/05/05 06:39:17;;;;;;;6.60;5.57;;;10.60;99.90;;;;;;4972134;28;20915;-62
2023/05/05 06:41:45;;;;;;;6.83;5.47;;;10.60;99.90;;;;;;4971838;28;20475;-62
2023/05/05 06:44:13;;;;;;;7.83;5.67;;;10.70;99.90;;;;;;4975818;28;20990;-62
2023/05/05 06:46:43;;;;;;;5.90;5.30;;;10.70;99.90;;;;;;4974309;28;20504;-62
2023/05/05 06:49:11;;;;;;;6.73;5.50;;;10.80;99.90;;;;;;4973936;28;20503;-62
2023/05/05 06:51:39;;;;;;;6.87;5.73;;;10.90;99.90;;;;;;4972233;28;20473;-62
2023/05/05 06:54:09;;;;;;;4.93;4.20;;;11.00;99.90;;;;;;4971529;28;21016;-62
2023/05/05 06:56:37;;;;;;;7.23;5.37;;;11.10;99.90;;;;;;4962243;28;20653;-62
2023/05/05 06:59:05;;;;;;;6.20;5.60;;;11.20;99.90;;;;;;4971493;28;20994;-62
2023/05/05 07:01:33;;;;;;;7.30;5.63;;;11.30;99.90;;;;;;4975900;28;20469;-62
2023/05/05 07:04:03;;;;;;;5.17;4.67;;;11.40;99.90;;;;;;4968241;28;20477;-62
2023/05/05 07:06:31;;;;;;;8.83;5.40;;;11.50;99.90;;;;;;4967804;28;20528;-62
2023/05/05 07:08:59;;;;;;;7.03;4.77;;;11.60;99.90;;;;;;4978195;28;20501;-62
2023/05/05 07:11:27;;;;;;;6.20;5.10;;;11.60;99.90;;;;;;4972349;28;20767;-62
2023/05/05 07:13:55;;;;;;;7.60;5.20;;;11.70;99.90;;;;;;4985753;28;20469;-62
2023/05/05 07:16:25;;;;;;;7.27;5.07;;;11.80;99.90;;;;;;4991573;28;20561;-62
2023/05/05 07:18:53;;;;;;;6.20;4.80;;;11.80;99.90;;;;;;4976238;28;20523;-62
2023/05/05 07:21:23;;;;;;;7.00;5.27;;;11.90;99.90;;;;;;4976995;28;20503;-62
2023/05/05 07:23:51;;;;;;;5.60;4.63;;;11.90;99.90;;;;;;4977147;28;20683;-62
2023/05/05 07:26:19;;;;;;;6.50;5.47;;;11.90;99.90;;;;;;4979189;28;20500;-63
2023/05/05 07:28:47;;;;;;;5.67;5.07;;;12.00;99.90;;;;;;4987609;28;20493;-62
2023/05/05 07:31:15;;;;;;;9.37;5.60;;;12.00;99.90;;;;;;4982811;28;20470;-62
2023/05/05 07:33:43;;;;;;;6.40;5.20;;;12.00;99.90;;;;;;4977131;28;21305;-62
2023/05/05 07:36:11;;;;;;;7.53;5.30;;;12.10;99.90;;;;;;4981521;28;20499;-62
2023/05/05 07:38:44;;;;;;;7.43;5.43;;;12.10;99.90;;;;;;4978404;28;20472;-62
2023/05/05 07:41:14;;;;;;;6.03;4.97;;;12.20;99.90;;;;;;4972888;28;20472;-63
2023/05/05 07:43:42;;;;;;;7.43;5.33;;;12.20;99.90;;;;;;4969040;28;20493;-62
2023/05/05 07:46:12;;;;;;;7.40;4.93;;;12.30;99.90;;;;;;4975235;28;20503;-63
2023/05/05 07:48:40;;;;;;;8.10;5.00;;;12.30;99.90;;;;;;4974170;28;20590;-62
2023/05/05 07:51:09;;;;;;;8.43;5.67;;;12.40;99.90;;;;;;4977572;28;20865;-62
2023/05/05 07:53:37;;;;;;;6.20;5.60;;;12.40;99.90;;;;;;4970717;28;20662;-60
2023/05/05 07:56:07;;;;;;;7.07;5.30;;;12.50;99.90;;;;;;4976791;28;20492;-62
2023/05/05 07:58:35;;;;;;;5.70;5.20;;;12.60;99.90;;;;;;4972840;28;20607;-62
2023/05/05 08:01:05;;;;;;;6.40;5.40;;;12.60;99.90;;;;;;4976301;28;20480;-61
2023/05/05 08:03:33;;;;;;;8.20;5.70;;;12.70;99.90;;;;;;4973425;28;20478;-62
2023/05/05 08:06:08;;;;;;;7.60;5.73;;;12.70;99.90;;;;;;4974497;28;20640;-62
2023/05/05 08:08:36;;;;;;;7.50;5.63;;;12.80;99.90;;;;;;4964959;28;20499;-61
2023/05/05 08:11:05;;;;;;;7.77;5.67;;;12.90;99.90;;;;;;4965894;28;20473;-61
2023/05/05 08:13:35;;;;;;;5.60;4.90;;;12.90;99.90;;;;;;4969378;28;20501;-61
2023/05/05 08:16:03;;;;;;;8.80;5.30;;;13.00;99.90;;;;;;4966978;28;20581;-62
2023/05/05 08:18:33;;;;;;;5.67;4.97;;;13.00;99.90;;;;;;4967550;28;20884;-62
2023/05/05 08:21:01;;;;;;;6.07;5.40;;;13.10;99.90;;;;;;4966582;28;20497;-62
2023/05/05 08:23:29;;;;;;;5.63;5.07;;;13.10;99.90;;;;;;4964023;28;21216;-62
2023/05/05 08:25:57;;;;;;;7.20;6.00;;;13.20;99.90;;;;;;4968136;28;20498;-63
2023/05/05 08:28:25;;;;;;;9.87;5.60;;;13.20;99.90;;;;;;4971814;28;20478;-63
2023/05/05 08:30:54;;;;;;;5.93;5.27;;;13.30;99.90;;;;;;4967577;28;20480;-61
2023/05/05 08:33:22;;;;;;;7.13;5.23;;;13.40;99.90;;;;;;4957144;28;20485;-62
2023/05/05 08:35:50;;;;;;;4.93;4.53;;;13.50;99.90;;;;;;4954299;28;21042;-63
2023/05/05 08:38:18;;;;;;;7.47;6.30;;;13.60;99.90;;;;;;4959921;28;20557;-64
2023/05/05 08:40:46;;;;;;;7.70;5.50;;;13.80;99.90;;;;;;4957582;28;20516;-63
2023/05/05 08:43:14;;;;;;;6.20;5.40;;;13.90;99.90;;;;;;4971080;28;27376;-63
2023/05/05 08:45:42;;;;;;;6.10;5.50;;;14.00;99.90;;;;;;4975232;28;20525;-63
2023/05/05 08:48:13;;;;;;;6.20;5.60;;;14.10;99.90;;;;;;4975316;28;20479;-63
2023/05/05 08:50:47;;;;;;;6.10;5.37;;;14.10;99.90;;;;;;4976247;28;20497;-62
2023/05/05 08:53:16;;;;;;;6.03;5.50;;;14.20;99.90;;;;;;4968524;28;20477;-63
2023/05/05 08:55:51;;;;;;;6.50;5.00;;;14.30;99.90;;;;;;4961086;28;20508;-63
2023/05/05 08:58:19;;;;;;;8.30;5.90;;;14.30;99.90;;;;;;4957971;28;20482;-62
2023/05/05 09:00:47;;;;;;;10.80;6.20;;;14.40;99.90;;;;;;4969109;28;20469;-64
2023/05/05 09:03:17;;;;;;;10.03;5.40;;;14.40;99.90;;;;;;4967122;28;20480;-61
2023/05/05 09:05:45;;;;;;;9.53;5.57;;;14.50;99.90;;;;;;4966774;28;20497;-63
2023/05/05 09:08:14;;;;;;;8.67;5.50;;;14.60;99.90;;;;;;4976974;28;20524;-63
2023/05/05 09:10:43;;;;;;;6.83;5.57;;;14.70;99.90;;;;;;4977662;28;20501;-63
2023/05/05 09:13:11;;;;;;;6.97;5.70;;;14.80;99.90;;;;;;4966964;28;20473;-61
2023/05/05 09:15:40;;;;;;;8.23;5.80;;;14.90;99.90;;;;;;4968819;28;20605;-62
2023/05/05 09:18:10;;;;;;;10.70;5.80;;;14.90;99.90;;;;;;4970207;28;20485;-61
2023/05/05 09:20:40;;;;;;;5.70;4.93;;;15.00;99.90;;;;;;4962909;28;20591;-63
2023/05/05 09:23:10;;;;;;;7.47;5.83;;;15.00;99.90;;;;;;4968977;28;20470;-63
2023/05/05 09:25:38;;;;;;;9.63;5.63;;;15.00;99.90;;;;;;4972470;28;20524;-63
2023/05/05 09:28:10;;;;;;;8.50;5.17;;;15.10;99.90;;;;;;4970735;28;20476;-62
2023/05/05 09:30:39;;;;;;;6.60;5.03;;;15.10;99.90;;;;;;4966757;28;20838;-63
2023/05/05 09:33:08;;;;;;;8.03;5.67;;;15.20;99.90;;;;;;4970549;28;20822;-62
2023/05/05 09:35:53;;;;;;;10.07;5.80;;;15.20;99.90;;;;;;4971827;28;20501;-62
2023/05/05 09:38:22;;;;;;;6.10;5.43;;;15.30;99.90;;;;;;4973149;28;20505;-62
2023/05/05 09:40:51;;;;;;;6.77;5.47;;;15.30;99.90;;;;;;4968922;28;21062;-62
2023/05/05 09:43:21;;;;;;;5.60;5.00;;;15.20;99.90;;;;;;4968923;28;20827;-62
2023/05/05 09:45:50;;;;;;;7.07;5.77;;;15.20;99.90;;;;;;4968428;28;20511;-63
2023/05/05 09:48:25;;;;;;;6.93;5.40;;;15.20;99.90;;;;;;4970759;28;20958;-62
2023/05/05 09:50:56;;;;;;;5.53;4.93;;;15.10;99.90;;;;;;4966133;28;20511;-61
2023/05/05 09:53:24;;;;;;;8.97;5.10;;;15.10;99.90;;;;;;4970840;28;20480;-63
2023/05/05 09:55:53;;;;;;;6.10;4.90;;;15.00;99.90;;;;;;4965029;28;20584;-61
2023/05/05 09:58:23;;;;;;;7.00;5.47;;;15.00;99.90;;;;;;4966256;28;20488;-65
2023/05/05 10:00:51;;;;;;;8.30;5.20;;;15.00;99.90;;;;;;4975325;28;20469;-64
2023/05/05 10:03:20;;;;;;;9.17;6.00;;;15.00;99.90;;;;;;4977762;28;20470;-62
2023/05/05 10:05:50;;;;;;;7.00;5.20;;;14.90;99.90;;;;;;4973105;28;20497;-62
2023/05/05 10:08:21;;;;;;;6.17;5.10;;;14.90;99.90;;;;;;4976311;28;21971;-62
2023/05/05 10:10:53;;;;;;;7.87;5.23;;;14.90;99.90;;;;;;4974636;28;20490;-62
2023/05/05 10:13:24;;;;;;;6.67;5.57;;;15.00;99.90;;;;;;4977782;28;20863;-62
2023/05/05 10:15:54;;;;;;;7.23;5.60;;;15.10;99.90;;;;;;4976094;28;21105;-62
2023/05/05 10:18:23;;;;;;;5.77;5.17;;;15.20;99.90;;;;;;4975913;28;20510;-63
2023/05/05 10:20:58;;;;;;;7.83;5.77;;;15.40;99.90;;;;;;4972479;28;20551;-62
2023/05/05 10:23:35;;;;;;;7.43;5.30;;;15.40;99.90;;;;;;4974581;28;20470;-62
2023/05/05 10:26:06;;;;;;;8.50;4.80;;;15.50;99.90;;;;;;4970390;28;20504;-63
2023/05/05 10:28:41;;;;;;;6.20;4.77;;;15.60;99.90;;;;;;4968823;28;20481;-63
2023/05/05 10:31:16;;;;;;;7.60;4.90;;;15.70;99.90;;;;;;4970461;28;20505;-63
2023/05/05 10:33:54;;;;;;;7.00;4.80;;;15.90;99.90;;;;;;4972187;28;21020;-62
2023/05/05 10:36:24;;;;;;;9.27;5.23;;;16.00;99.90;;;;;;4972943;28;20580;-62
2023/05/05 10:38:57;;;;;;;6.10;5.17;;;16.10;99.90;;;;;;4972165;28;20469;-63
2023/05/05 10:41:26;;;;;;;5.57;5.00;;;16.20;99.90;;;;;;4973382;28;20469;-62
2023/05/05 10:43:57;;;;;;;5.33;4.43;;;16.30;99.90;;;;;;4976303;28;20479;-62
2023/05/05 10:46:26;;;;;;;5.23;4.70;;;16.50;99.90;;;;;;4975086;28;20496;-62
2023/05/05 10:49:02;;;;;;;5.70;5.07;;;16.60;99.90;;;;;;4968009;28;20516;-62
2023/05/05 10:51:40;;;;;;;5.50;4.97;;;16.70;99.90;;;;;;4973997;28;20496;-65
2023/05/05 10:54:18;;;;;;;8.60;5.17;;;16.90;99.90;;;;;;4971457;28;20469;-63
2023/05/05 10:56:47;;;;;;;6.10;5.50;;;17.00;99.90;;;;;;4966125;28;20504;-62
2023/05/05 10:59:41;;;;;;;5.67;5.10;;;17.00;99.90;;;;;;4971617;28;20473;-63
2023/05/05 11:02:25;;;;;;;6.27;4.67;;;17.10;99.90;;;;;;4972432;28;21373;-63
2023/05/05 11:05:16;;;;;;;8.63;5.10;;;17.10;99.90;;;;;;4971581;28;20563;-63
2023/05/05 11:07:45;;;;;;;5.77;4.20;;;17.10;99.90;;;;;;4975792;28;20940;-63
2023/05/05 11:10:17;;;;;;;6.90;5.00;;;17.10;99.90;;;;;;4972319;28;20496;-63
2023/05/05 11:13:20;;;;;;;4.67;4.27;;;17.10;99.90;;;;;;4971460;28;20465;-61
2023/05/05 11:15:49;;;;;;;7.20;4.43;;;17.10;99.90;;;;;;4965444;28;20485;-61
2023/05/05 11:18:35;;;;;;;5.40;4.27;;;17.10;99.90;;;;;;4973751;28;20474;-63
2023/05/05 11:21:17;;;;;;;5.93;5.37;;;17.10;99.90;;;;;;4972829;28;20844;-62
2023/05/05 11:23:47;;;;;;;5.33;4.80;;;17.10;99.90;;;;;;4970847;28;20478;-61
2023/05/05 11:26:18;;;;;;;5.70;4.50;;;17.00;99.90;;;;;;4968204;28;20497;-62
2023/05/05 11:29:01;;;;;;;7.20;4.60;;;17.00;99.90;;;;;;4965779;28;20480;-62
2023/05/05 11:31:30;;;;;;;6.73;5.03;;;17.00;99.90;;;;;;4962870;28;20507;-62
2023/05/05 11:34:23;;;;;;;7.70;5.30;;;17.00;99.90;;;;;;4962288;28;20994;-63
2023/05/05 11:36:52;;;;;;;4.60;4.17;;;17.10;99.90;;;;;;4965336;28;21081;-65
2023/05/05 11:39:26;;;;;;;7.27;5.33;;;17.10;99.90;;;;;;4963562;28;20477;-65
2023/05/05 11:42:08;;;;;;;5.20;4.70;;;17.10;99.90;;;;;;4962478;28;20480;-63
2023/05/05 11:44:38;;;;;;;5.57;4.50;;;17.10;99.90;;;;;;4971485;28;20540;-63
2023/05/05 11:47:26;;;;;;;9.23;5.40;;;17.10;99.90;;;;;;4968620;28;21044;-63
2023/05/05 11:49:54;;;;;;;6.03;5.00;;;17.10;99.90;;;;;;4971969;28;20480;-63
2023/05/05 11:52:28;;;;;;;5.20;4.13;;;17.20;99.90;;;;;;4969430;28;20478;-64
2023/05/05 11:55:06;;;;;;;7.70;5.10;;;17.20;99.90;;;;;;4972189;28;20500;-65
2023/05/05 11:57:35;;;;;;;9.77;5.30;;;17.20;99.90;;;;;;4967884;28;20472;-64
2023/05/05 12:00:06;;;;;;;7.57;5.00;;;17.20;99.90;;;;;;4971399;28;20474;-65
2023/05/05 12:02:35;;;;;;;4.80;4.40;;;17.10;99.90;;;;;;4974284;28;20477;-64
2023/05/05 12:05:04;;;;;;;6.10;4.80;;;17.00;99.90;;;;;;4966667;28;20564;-63
2023/05/05 12:07:33;;;;;;;9.23;4.77;;;17.00;99.90;;;;;;4964601;28;20484;-65
2023/05/05 12:10:01;;;;;;;6.87;4.53;;;16.90;99.90;;;;;;4962032;28;20986;-65
2023/05/05 12:12:38;;;;;;;6.40;4.87;;;16.90;99.90;;;;;;4964456;28;20595;-65
2023/05/05 12:15:08;;;;;;;5.03;4.47;;;16.80;99.90;;;;;;4959015;28;22453;-65
2023/05/05 12:17:39;;;;;;;7.27;4.80;;;16.80;99.90;;;;;;4968919;28;20994;-66
2023/05/05 12:20:08;;;;;;;6.20;4.80;;;16.80;99.90;;;;;;4966486;28;20477;-64
2023/05/05 12:22:37;;;;;;;6.17;5.00;;;16.70;99.90;;;;;;4958554;28;20505;-64
2023/05/05 12:25:07;;;;;;;5.70;5.13;;;16.70;99.90;;;;;;4965212;28;20557;-66
2023/05/05 12:27:37;;;;;;;7.83;4.83;;;16.70;99.90;;;;;;4971918;28;20476;-63
2023/05/05 12:30:14;;;;;;;8.37;4.40;;;16.70;99.90;;;;;;4965955;28;20470;-65
2023/05/05 12:32:42;;;;;;;5.13;4.63;;;16.60;99.90;;;;;;4969817;28;20611;-65
2023/05/05 12:35:12;;;;;;;4.77;4.40;;;16.60;99.90;;;;;;4971670;28;20655;-65
2023/05/05 12:37:40;;;;;;;6.30;4.97;;;16.60;99.90;;;;;;4965370;28;20482;-64
2023/05/05 12:40:47;;;;;;;6.30;4.77;;;16.50;99.90;;;;;;4966308;28;20573;-64
2023/05/05 12:43:29;;;;;;;8.10;5.10;;;16.50;99.90;;;;;;4964326;28;20483;-63
2023/05/05 12:46:05;;;;;;;5.40;4.90;;;16.50;99.90;;;;;;4967109;28;21185;-64
2023/05/05 12:48:33;;;;;;;9.30;4.60;;;16.50;99.90;;;;;;4963060;28;20477;-63
2023/05/05 12:51:16;;;;;;;5.83;4.73;;;16.50;99.90;;;;;;4965306;28;20504;-62
2023/05/05 12:53:44;;;;;;;5.43;3.93;;;16.40;99.90;;;;;;4974583;28;20563;-64
2023/05/05 12:56:32;;;;;;;5.73;4.70;;;16.40;99.90;;;;;;4973946;28;20504;-65
2023/05/05 12:59:02;;;;;;;4.37;3.97;;;16.40;99.90;;;;;;4973087;28;20969;-64
2023/05/05 13:01:30;;;;;;;6.33;4.60;;;16.40;99.90;;;;;;4971442;28;20504;-65
2023/05/05 13:04:06;;;;;;;8.27;4.67;;;16.50;99.90;;;;;;4975882;28;20477;-65
2023/05/05 13:06:34;;;;;;;6.10;4.33;;;16.50;99.90;;;;;;4970140;28;20492;-65
2023/05/05 13:09:02;;;;;;;7.00;5.20;;;16.50;99.90;;;;;;4968573;28;21115;-65